createdAt,value
2022-08-07T00:00:36.505Z,100886.50
2022-08-07T00:03:07.267Z,100874.19
2022-08-07T00:05:36.281Z,100870.41
2022-08-07T00:08:04.763Z,100874.00
2022-08-07T00:10:31.811Z,100876.44
2022-08-07T00:13:09.842Z,100874.59
2022-08-07T00:15:50.941Z,100881.22
2022-08-07T00:18:24.565Z,100880.06
2022-08-07T00:20:54.080Z,100881.28
2022-08-07T00:23:21.179Z,100874.34
2022-08-07T00:26:00.362Z,100876.66
2022-08-07T00:28:33.734Z,100871.97
2022-08-07T00:31:12.240Z,100883.97
2022-08-07T00:33:40.555Z,100876.91
2022-08-07T00:36:08.389Z,100874.50
2022-08-07T00:38:36.777Z,100872.34
2022-08-07T00:41:10.087Z,100876.09
2022-08-07T00:43:59.754Z,100865.16
2022-08-07T00:46:28.003Z,100861.28
2022-08-07T00:48:54.459Z,100866.28
2022-08-07T00:51:21.581Z,100858.50
2022-08-07T00:53:50.888Z,100858.38
2022-08-07T00:56:22.664Z,100857.84
2022-08-07T00:58:49.717Z,100863.31
2022-08-07T01:01:18.197Z,100863.31
2022-08-07T01:03:56.552Z,100861.22
2022-08-07T01:06:29.126Z,100860.56
2022-08-07T01:08:58.352Z,100865.72
2022-08-07T01:12:09.982Z,100871.31
2022-08-07T01:14:12.700Z,100867.47
2022-08-07T01:16:43.100Z,100872.16
2022-08-07T01:19:18.046Z,100871.59
2022-08-07T01:21:47.271Z,100873.63
2022-08-07T01:24:14.622Z,100877.38
2022-08-07T01:26:52.300Z,100873.91
2022-08-07T01:29:19.947Z,100876.91
2022-08-07T01:31:48.569Z,100871.00
2022-08-07T01:34:15.594Z,100877.34
2022-08-07T01:36:44.265Z,100875.91
2022-08-07T01:39:17.953Z,100871.59
2022-08-07T01:42:07.719Z,100868.31
2022-08-07T01:44:31.494Z,100871.19
2022-08-07T01:46:58.819Z,100868.94
2022-08-07T01:49:27.673Z,100872.69
2022-08-07T01:52:04.942Z,100865.56
2022-08-07T01:54:39.574Z,100862.84
2022-08-07T01:57:20.771Z,100864.09
2022-08-07T02:00:12.988Z,100861.84
2022-08-07T02:03:12.204Z,100864.84
2022-08-07T02:05:48.566Z,100863.72
2022-08-07T02:08:27.921Z,100853.41
2022-08-07T02:10:59.189Z,100846.63
2022-08-07T02:13:56.851Z,100849.41
2022-08-07T02:16:18.153Z,100847.16
2022-08-07T02:18:49.340Z,100838.44
2022-08-07T02:21:19.691Z,100842.09
2022-08-07T02:23:47.677Z,100841.25
2022-08-07T02:26:33.943Z,100836.94
2022-08-07T02:29:02.998Z,100842.94
2022-08-07T02:31:32.665Z,100829.91
2022-08-07T02:34:03.028Z,100824.66
2022-08-07T02:36:33.011Z,100822.44
2022-08-07T02:39:02.611Z,100823.28
2022-08-07T02:41:50.648Z,100826.91
2022-08-07T02:44:21.427Z,100826.34
2022-08-07T02:46:52.663Z,100818.56
2022-08-07T02:49:28.683Z,100823.81
2022-08-07T02:52:09.921Z,100821.41
2022-08-07T02:54:41.647Z,100817.97
2022-08-07T02:57:12.764Z,100810.00
2022-08-07T02:59:45.571Z,100823.09
2022-08-07T03:02:22.659Z,100816.19
2022-08-07T03:04:53.221Z,100810.44
2022-08-07T03:07:21.498Z,100808.09
2022-08-07T03:10:08.902Z,100809.09
2022-08-07T03:12:36.642Z,100805.63
2022-08-07T03:15:07.847Z,100814.31
2022-08-07T03:17:54.093Z,100810.94
2022-08-07T03:20:23.127Z,100820.66
2022-08-07T03:22:50.999Z,100815.34
2022-08-07T03:25:21.086Z,100815.69
2022-08-07T03:27:59.144Z,100821.03
2022-08-07T03:30:27.175Z,100825.59
2022-08-07T03:32:58.243Z,100823.72
2022-08-07T03:35:44.087Z,100829.06
2022-08-07T03:38:16.322Z,100825.34
2022-08-07T03:40:47.781Z,100826.34
2022-08-07T03:43:26.480Z,100832.53
2022-08-07T03:45:53.668Z,100827.59
2022-08-07T03:48:20.552Z,100829.53
2022-08-07T03:50:56.177Z,100835.38
2022-08-07T03:53:50.167Z,100835.81
2022-08-07T03:56:14.527Z,100840.38
2022-08-07T03:59:07.869Z,100833.44
2022-08-07T04:01:30.120Z,100831.97
2022-08-07T04:03:59.498Z,100835.69
2022-08-07T04:06:37.722Z,100836.72
2022-08-07T04:09:06.024Z,100832.31
2022-08-07T04:12:23.874Z,100830.53
2022-08-07T04:14:37.576Z,100841.03
2022-08-07T04:17:20.009Z,100822.44
2022-08-07T04:19:52.481Z,100828.00
2022-08-07T04:22:27.374Z,100842.03
2022-08-07T04:24:58.095Z,100840.44
2022-08-07T04:27:26.463Z,100838.75
2022-08-07T04:30:01.390Z,100847.34
2022-08-07T04:32:33.901Z,100849.97
2022-08-07T04:35:05.340Z,100843.81
2022-08-07T04:37:52.726Z,100857.13
2022-08-07T04:40:20.624Z,100849.22
2022-08-07T04:42:47.076Z,100857.91
2022-08-07T04:45:44.378Z,100857.97
2022-08-07T04:48:12.445Z,100859.53
2022-08-07T04:50:45.247Z,100867.69
2022-08-07T04:54:00.937Z,100865.16
2022-08-07T04:58:09.811Z,100866.84
2022-08-07T05:00:17.383Z,100873.63
2022-08-07T05:04:01.144Z,100876.56
2022-08-07T05:06:16.403Z,100870.16
2022-08-07T05:09:10.539Z,100874.81
2022-08-07T05:11:58.899Z,100872.66
2022-08-07T05:14:53.264Z,100877.97
2022-08-07T05:17:51.928Z,100871.31
2022-08-07T05:20:16.765Z,100874.09
2022-08-07T05:22:46.908Z,100869.88
2022-08-07T05:25:25.650Z,100867.34
2022-08-07T05:28:20.254Z,100864.66
2022-08-07T05:30:52.411Z,100869.06
2022-08-07T05:33:20.803Z,100878.59
2022-08-07T05:35:50.814Z,100877.09
2022-08-07T05:38:58.112Z,100869.13
2022-08-07T05:41:14.523Z,100874.97
2022-08-07T05:44:01.271Z,100879.66
2022-08-07T05:46:36.102Z,100877.84
2022-08-07T05:49:12.059Z,100887.72
2022-08-07T05:51:42.296Z,100891.19
2022-08-07T05:54:29.854Z,100887.88
2022-08-07T05:56:57.734Z,100882.44
2022-08-07T05:59:26.279Z,100888.94
2022-08-07T06:01:54.613Z,100888.06
2022-08-07T06:04:29.769Z,100892.59
2022-08-07T06:07:03.441Z,100894.56
2022-08-07T06:09:44.969Z,100903.97
2022-08-07T06:12:18.637Z,100899.34
2022-08-07T06:14:49.539Z,100903.66
2022-08-07T06:17:18.224Z,100902.25
2022-08-07T06:19:57.557Z,100910.69
2022-08-07T06:22:36.883Z,100909.47
2022-08-07T06:25:06.573Z,100911.16
2022-08-07T06:27:44.086Z,100903.75
2022-08-07T06:30:32.310Z,100903.25
2022-08-07T06:33:03.825Z,100902.09
2022-08-07T06:35:45.534Z,100908.00
2022-08-07T06:38:20.596Z,100901.75
2022-08-07T06:40:51.307Z,100901.34
2022-08-07T06:43:22.275Z,100907.25
2022-08-07T06:45:49.588Z,100904.44
2022-08-07T06:48:16.267Z,100903.66
2022-08-07T06:50:53.085Z,100903.13
2022-08-07T06:55:28.486Z,100894.44
2022-08-07T06:56:15.312Z,100895.19
2022-08-07T07:00:13.311Z,100896.69
2022-08-07T07:01:44.149Z,100897.97
2022-08-07T07:04:28.221Z,100890.84
2022-08-07T07:07:02.040Z,100892.31
2022-08-07T07:09:31.693Z,100880.94
2022-08-07T07:12:19.607Z,100887.41
2022-08-07T07:14:50.180Z,100883.78
2022-08-07T07:17:38.761Z,100876.91
2022-08-07T07:20:29.528Z,100885.59
2022-08-07T07:24:10.937Z,100883.44
2022-08-07T07:26:34.938Z,100883.03
2022-08-07T07:29:22.708Z,100880.41
2022-08-07T07:31:33.219Z,100875.22
2022-08-07T07:34:16.774Z,100877.13
2022-08-07T07:36:47.927Z,100869.34
2022-08-07T07:39:22.687Z,100880.94
2022-08-07T07:42:12.945Z,100882.22
2022-08-07T07:44:43.416Z,100880.53
2022-08-07T07:47:16.101Z,100875.31
2022-08-07T07:50:32.728Z,100866.22
2022-08-07T07:52:40.993Z,100875.00
2022-08-07T07:55:09.501Z,100877.09
2022-08-07T07:57:52.330Z,100880.06
2022-08-07T08:00:29.013Z,100873.66
2022-08-07T08:03:05.662Z,100876.59
2022-08-07T08:05:54.131Z,100871.25
2022-08-07T08:08:34.720Z,100868.03
2022-08-07T08:11:09.327Z,100868.22
2022-08-07T08:13:54.227Z,100864.13
2022-08-07T08:16:35.424Z,100860.28
2022-08-07T08:19:17.386Z,100862.19
2022-08-07T08:22:10.883Z,100864.47
2022-08-07T08:25:18.872Z,100853.56
2022-08-07T08:27:56.288Z,100857.72
2022-08-07T08:30:29.551Z,100858.22
2022-08-07T08:33:01.435Z,100857.38
2022-08-07T08:35:39.385Z,100846.50
2022-08-07T08:38:17.001Z,100853.13
2022-08-07T08:40:53.644Z,100854.22
2022-08-07T08:43:42.431Z,100848.72
2022-08-07T08:46:17.269Z,100844.03
2022-08-07T08:49:09.841Z,100841.19
2022-08-07T08:52:12.759Z,100836.91
2022-08-07T08:54:41.433Z,100832.56
2022-08-07T08:57:21.436Z,100828.38
2022-08-07T09:00:01.596Z,100832.72
2022-08-07T09:02:52.619Z,100834.72
2022-08-07T09:05:40.743Z,100834.66
2022-08-07T09:08:32.247Z,100837.69
2022-08-07T09:11:14.045Z,100834.84
2022-08-07T09:13:56.871Z,100822.72
2022-08-07T09:16:42.646Z,100835.84
2022-08-07T09:19:52.157Z,100825.75
2022-08-07T09:24:31.903Z,100832.00
2022-08-07T09:25:27.165Z,100819.66
2022-08-07T09:28:04.922Z,100817.88
2022-08-07T09:31:13.419Z,100815.31
2022-08-07T09:34:16.568Z,100819.19
2022-08-07T09:37:01.777Z,100817.50
2022-08-07T09:39:54.506Z,100815.50
2022-08-07T09:42:41.101Z,100824.75
2022-08-07T09:47:25.040Z,100807.16
2022-08-07T09:50:02.271Z,100808.84
2022-08-07T09:52:33.490Z,100803.97
2022-08-07T09:55:29.002Z,100791.47
2022-08-07T09:58:32.608Z,100793.22
2022-08-07T10:01:51.081Z,100791.53
2022-08-07T10:04:52.836Z,100784.41
2022-08-07T10:08:08.149Z,100777.19
2022-08-07T10:11:59.801Z,100770.19
2022-08-07T10:14:01.766Z,100768.34
2022-08-07T10:16:29.378Z,100756.72
2022-08-07T10:19:11.257Z,100761.66
2022-08-07T10:22:15.135Z,100761.78
2022-08-07T10:24:49.141Z,100761.97
2022-08-07T10:27:15.885Z,100752.31
2022-08-07T10:30:03.641Z,100750.03
2022-08-07T10:33:01.757Z,100763.81
2022-08-07T10:35:55.567Z,100755.00
2022-08-07T10:38:49.291Z,100745.38
2022-08-07T10:41:51.486Z,100742.00
2022-08-07T10:44:28.805Z,100746.78
2022-08-07T10:47:31.345Z,100739.81
2022-08-07T10:50:16.933Z,100730.56
2022-08-07T10:53:24.971Z,100740.63
2022-08-07T10:56:31.172Z,100731.34
2022-08-07T10:59:13.605Z,100724.41
2022-08-07T11:02:11.819Z,100723.50
2022-08-07T11:04:51.323Z,100719.19
2022-08-07T11:07:58.733Z,100716.06
2022-08-07T11:10:29.861Z,100724.19
2022-08-07T11:14:57.260Z,100718.53
2022-08-07T11:16:34.197Z,100718.47
2022-08-07T11:19:12.007Z,100713.03
2022-08-07T11:21:50.261Z,100704.78
2022-08-07T11:24:33.495Z,100696.09
2022-08-07T11:27:13.380Z,100698.16
2022-08-07T11:30:10.096Z,100689.91
2022-08-07T11:32:45.836Z,100681.44
2022-08-07T11:36:04.664Z,100685.00
2022-08-07T11:38:58.025Z,100681.66
2022-08-07T11:42:00.299Z,100687.16
2022-08-07T11:44:39.609Z,100679.94
2022-08-07T11:47:26.065Z,100672.34
2022-08-07T11:50:32.692Z,100683.34
2022-08-07T11:53:09.872Z,100666.06
2022-08-07T11:56:25.051Z,100666.28
2022-08-07T11:58:56.291Z,100675.78
2022-08-07T12:02:17.765Z,100674.09
2022-08-07T12:05:28.569Z,100663.72
2022-08-07T12:08:38.753Z,100663.47
2022-08-07T12:11:32.493Z,100661.72
2022-08-07T12:14:11.109Z,100667.38
2022-08-07T12:16:51.224Z,100668.56
2022-08-07T12:20:03.279Z,100662.50
2022-08-07T12:23:09.103Z,100672.22
2022-08-07T12:26:22.096Z,100663.53
2022-08-07T12:29:08.883Z,100658.63
2022-08-07T12:32:04.365Z,100654.75
2022-08-07T12:34:38.809Z,100645.50
2022-08-07T12:37:16.989Z,100659.19
2022-08-07T12:39:52.459Z,100650.31
2022-08-07T12:42:27.905Z,100646.63
2022-08-07T12:44:58.246Z,100635.41
2022-08-07T12:47:30.717Z,100638.13
2022-08-07T12:50:38.568Z,100640.09
2022-08-07T12:53:19.118Z,100639.13
2022-08-07T12:56:10.054Z,100635.44
2022-08-07T12:58:40.085Z,100634.50
2022-08-07T13:01:19.168Z,100633.34
2022-08-07T13:04:04.589Z,100631.72
2022-08-07T13:07:01.293Z,100630.50
2022-08-07T13:10:29.361Z,100618.13
2022-08-07T13:13:02.679Z,100623.25
2022-08-07T13:15:43.859Z,100619.25
2022-08-07T13:18:26.567Z,100615.94
2022-08-07T13:21:35.014Z,100617.66
2022-08-07T13:24:11.370Z,100610.03
2022-08-07T13:26:55.579Z,100607.03
2022-08-07T13:29:46.969Z,100610.03
2022-08-07T13:32:32.850Z,100602.91
2022-08-07T13:35:08.829Z,100606.03
2022-08-07T13:38:01.326Z,100599.50
2022-08-07T13:40:42.707Z,100588.00
2022-08-07T13:43:13.321Z,100589.31
2022-08-07T13:46:12.490Z,100588.84
2022-08-07T13:48:34.722Z,100581.25
2022-08-07T13:51:28.210Z,100584.16
2022-08-07T13:54:03.577Z,100584.34
2022-08-07T13:56:35.400Z,100583.78
2022-08-07T13:59:18.307Z,100569.53
2022-08-07T14:02:03.899Z,100564.59
2022-08-07T14:04:35.796Z,100554.13
2022-08-07T14:07:09.493Z,100551.81
2022-08-07T14:10:15.656Z,100563.91
2022-08-07T14:12:36.203Z,100559.81
2022-08-07T14:15:18.594Z,100560.31
2022-08-07T14:18:23.942Z,100550.91
2022-08-07T14:20:41.161Z,100560.56
2022-08-07T14:24:00.261Z,100540.72
2022-08-07T14:26:27.993Z,100559.13
2022-08-07T14:29:02.956Z,100539.28
2022-08-07T14:31:42.230Z,100538.88
2022-08-07T14:34:19.921Z,100538.22
2022-08-07T14:36:56.374Z,100549.09
2022-08-07T14:42:18.177Z,100534.06
2022-08-07T14:44:54.001Z,100533.81
2022-08-07T14:47:32.645Z,100527.28
2022-08-07T14:50:06.659Z,100523.28
2022-08-07T14:52:39.255Z,100526.03
2022-08-07T14:55:07.066Z,100528.34
2022-08-07T15:00:30.476Z,100519.56
2022-08-07T15:02:59.409Z,100520.22
2022-08-07T15:05:30.229Z,100521.63
2022-08-07T15:07:59.007Z,100521.56
2022-08-07T15:10:29.856Z,100526.69
2022-08-07T15:13:01.259Z,100528.00
2022-08-07T15:15:52.790Z,100518.88
2022-08-07T15:18:33.618Z,100512.00
2022-08-07T15:21:08.240Z,100522.63
2022-08-07T15:25:15.379Z,100519.50
2022-08-07T15:26:55.938Z,100514.97
2022-08-07T15:30:08.905Z,100503.63
2022-08-07T15:32:39.047Z,100497.84
2022-08-07T15:35:06.599Z,100501.34
2022-08-07T15:38:18.212Z,100501.16
2022-08-07T15:40:34.608Z,100500.28
2022-08-07T15:43:53.196Z,100495.25
2022-08-07T15:46:31.674Z,100489.13
2022-08-07T15:54:39.437Z,100489.13
2022-08-07T15:57:10.698Z,100489.16
2022-08-07T15:59:56.631Z,100491.06
2022-08-07T16:02:31.629Z,100495.41
2022-08-07T16:05:01.768Z,100491.44
2022-08-07T16:08:32.271Z,100483.22
2022-08-07T16:10:27.811Z,100479.00
2022-08-07T16:13:57.770Z,100486.38
2022-08-07T16:16:47.585Z,100481.28
2022-08-07T16:19:43.138Z,100474.53
2022-08-07T16:22:36.434Z,100478.13
2022-08-07T16:25:55.058Z,100468.94
2022-08-07T16:30:08.533Z,100471.28
2022-08-07T16:31:50.773Z,100474.25
2022-08-07T16:34:34.080Z,100482.00
2022-08-07T16:38:03.393Z,100477.03
2022-08-07T16:40:31.961Z,100484.06
2022-08-07T16:43:07.568Z,100481.38
2022-08-07T16:46:47.319Z,100489.50
2022-08-07T16:49:10.640Z,100481.41
2022-08-07T16:52:35.450Z,100483.38
2022-08-07T16:55:08.117Z,100478.63
2022-08-07T16:58:02.530Z,100483.53
2022-08-07T17:00:55.438Z,100480.97
2022-08-07T17:03:59.668Z,100483.72
2022-08-07T17:06:44.260Z,100489.56
2022-08-07T17:10:06.939Z,100492.25
2022-08-07T17:12:44.729Z,100488.75
2022-08-07T17:15:15.683Z,100490.16
2022-08-07T17:17:48.052Z,100490.50
2022-08-07T17:20:31.107Z,100494.59
2022-08-07T17:22:57.524Z,100484.28
2022-08-07T17:25:51.304Z,100487.44
2022-08-07T17:28:38.262Z,100489.63
2022-08-07T17:31:20.780Z,100495.94
2022-08-07T17:34:34.046Z,100500.13
2022-08-07T17:37:09.557Z,100501.78
2022-08-07T17:40:14.771Z,100501.78
2022-08-07T17:43:02.197Z,100505.19
2022-08-07T17:45:50.408Z,100509.16
2022-08-07T17:48:30.639Z,100506.00
2022-08-07T17:52:00.725Z,100505.88
2022-08-07T17:54:40.254Z,100506.53
2022-08-07T17:57:58.998Z,100511.88
2022-08-07T18:00:34.509Z,100505.88
2022-08-07T18:03:28.778Z,100507.88
2022-08-07T18:06:36.656Z,100506.22
2022-08-07T18:09:05.671Z,100511.03
2022-08-07T18:12:06.743Z,100507.22
2022-08-07T18:14:50.465Z,100513.56
2022-08-07T18:18:44.995Z,100508.91
2022-08-07T18:21:11.783Z,100508.09
2022-08-07T18:23:42.634Z,100508.94
2022-08-07T18:26:05.337Z,100510.44
2022-08-07T18:29:02.202Z,100517.59
2022-08-07T18:31:59.455Z,100517.13
2022-08-07T18:35:00.709Z,100522.47
2022-08-07T18:38:55.184Z,100522.50
2022-08-07T18:40:49.266Z,100526.47
2022-08-07T18:43:49.296Z,100532.81
2022-08-07T18:46:28.360Z,100536.97
2022-08-07T18:50:19.275Z,100539.81
2022-08-07T18:52:53.681Z,100534.44
2022-08-07T18:55:42.946Z,100536.13
2022-08-07T18:58:25.390Z,100542.22
2022-08-07T19:01:11.958Z,100551.34
2022-08-07T19:04:03.896Z,100555.63
2022-08-07T19:06:49.696Z,100556.94
2022-08-07T19:09:55.426Z,100560.78
2022-08-07T19:12:29.892Z,100572.25
2022-08-07T19:16:04.528Z,100573.25
2022-08-07T19:18:47.876Z,100575.03
2022-08-07T19:21:47.802Z,100572.78
2022-08-07T19:24:30.959Z,100576.25
2022-08-07T19:28:57.463Z,100576.31
2022-08-07T19:31:05.487Z,100576.44
2022-08-07T19:32:50.368Z,100581.56
2022-08-07T19:35:25.672Z,100582.47
2022-08-07T19:37:58.589Z,100582.06
2022-08-07T19:40:31.696Z,100590.97
2022-08-07T19:43:08.683Z,100591.16
2022-08-07T19:46:05.426Z,100592.94
2022-08-07T19:48:53.514Z,100595.28
2022-08-07T19:51:24.380Z,100595.75
2022-08-07T19:54:34.344Z,100605.66
2022-08-07T19:58:02.984Z,100607.44
2022-08-07T19:59:58.729Z,100603.06
2022-08-07T20:02:39.206Z,100606.03
2022-08-07T20:05:28.608Z,100617.34
2022-08-07T20:08:27.382Z,100606.44
2022-08-07T20:11:15.117Z,100617.66
2022-08-07T20:14:20.867Z,100617.66
2022-08-07T20:17:05.210Z,100613.47
2022-08-07T20:20:08.400Z,100624.44
2022-08-07T20:22:39.986Z,100616.66
2022-08-07T20:27:58.306Z,100619.22
2022-08-07T20:30:34.363Z,100617.72
2022-08-07T20:33:03.860Z,100615.59
2022-08-07T20:35:51.731Z,100617.31
2022-08-07T20:38:22.080Z,100621.78
2022-08-07T20:40:53.311Z,100619.97
2022-08-07T20:43:25.583Z,100621.22
2022-08-07T20:46:28.721Z,100621.22
2022-08-07T20:48:58.155Z,100614.09
2022-08-07T20:51:35.776Z,100617.91
2022-08-07T20:54:08.597Z,100613.16
2022-08-07T20:56:46.114Z,100621.00
2022-08-07T20:59:27.186Z,100615.50
2022-08-07T21:02:31.782Z,100607.84
2022-08-07T21:05:00.637Z,100612.97
2022-08-07T21:07:32.880Z,100612.00
2022-08-07T21:10:02.105Z,100605.69
2022-08-07T21:12:34.229Z,100602.06
2022-08-07T21:15:07.243Z,100604.97
2022-08-07T21:18:02.675Z,100608.28
2022-08-07T21:20:30.193Z,100602.00
2022-08-07T21:23:08.665Z,100602.66
2022-08-07T21:25:56.309Z,100606.09
2022-08-07T21:28:48.013Z,100598.91
2022-08-07T21:32:10.795Z,100608.38
2022-08-07T21:34:32.225Z,100598.31
2022-08-07T21:37:04.068Z,100598.97
2022-08-07T21:39:48.229Z,100593.34
2022-08-07T21:42:42.352Z,100596.53
2022-08-07T21:45:42.139Z,100600.56
2022-08-07T21:48:29.012Z,100601.88
2022-08-07T21:51:05.741Z,100601.31
2022-08-07T21:53:46.606Z,100608.81
2022-08-07T21:56:47.010Z,100609.94
2022-08-07T21:59:31.019Z,100610.91
2022-08-07T22:02:31.012Z,100612.44
2022-08-07T22:05:00.544Z,100612.44
2022-08-07T22:07:48.584Z,100613.44
2022-08-07T22:10:21.569Z,100619.56
2022-08-07T22:12:55.367Z,100616.56
2022-08-07T22:16:41.560Z,100620.03
2022-08-07T22:18:24.494Z,100617.13
2022-08-07T22:21:11.565Z,100628.88
2022-08-07T22:23:45.026Z,100618.53
2022-08-07T22:26:13.669Z,100624.13
2022-08-07T22:28:55.701Z,100625.81
2022-08-07T22:31:55.889Z,100630.13
2022-08-07T22:34:35.600Z,100634.94
2022-08-07T22:38:03.646Z,100630.25
2022-08-07T22:40:39.729Z,100633.97
2022-08-07T22:43:10.760Z,100639.75
2022-08-07T22:46:41.048Z,100635.09
2022-08-07T22:49:07.679Z,100637.97
2022-08-07T22:52:19.599Z,100637.34
2022-08-07T22:55:23.029Z,100638.16
2022-08-07T22:58:04.624Z,100652.34
2022-08-07T23:01:10.939Z,100641.53
2022-08-07T23:04:02.722Z,100642.47
2022-08-07T23:07:00.316Z,100645.72
2022-08-07T23:10:05.190Z,100645.53
2022-08-07T23:12:42.692Z,100643.09
2022-08-07T23:16:06.092Z,100646.63
2022-08-07T23:18:32.334Z,100641.31
2022-08-07T23:21:16.752Z,100653.34
2022-08-07T23:24:11.614Z,100640.25
2022-08-07T23:26:58.294Z,100642.63
2022-08-07T23:29:43.414Z,100647.66
2022-08-07T23:34:20.231Z,100649.22
2022-08-07T23:35:27.096Z,100654.66
2022-08-07T23:38:11.703Z,100651.50
2022-08-07T23:41:20.992Z,100643.69
2022-08-07T23:44:11.770Z,100644.66
2022-08-07T23:46:47.962Z,100644.44
2022-08-07T23:49:42.276Z,100644.66
2022-08-07T23:53:05.615Z,100654.13
2022-08-07T23:55:52.907Z,100645.84
2022-08-07T23:58:50.788Z,100644.63
